Time;durP1;ratioP1;P1;durP2;ratioP2;P2;SDS_P1;SDS_P2;PMS_P1;PMS_P2;Temp;Humidity;BMP_temperature;BMP_pressure;BME280_temperature;BME280_humidity;BME280_pressure;Samples;Min_cycle;Max_cycle;Signal;HPM_P1;HPM_P2
2023/12/11 00:00:23;;;;;;;6.90;2.90;;;;;;;2.68;97.02;95964.20;107999;1278;22558;-81
2023/12/11 00:03:11;;;;;;;6.40;2.50;;;;;;;2.74;97.19;95966.11;107999;1281;22542;-80
2023/12/11 00:05:40;;;;;;;5.50;2.40;;;;;;;2.75;97.03;95965.49;107998;1273;24146;-80
2023/12/11 00:08:08;;;;;;;4.90;2.50;;;;;;;2.78;97.00;95958.77;108060;1281;22541;-80
2023/12/11 00:10:36;;;;;;;5.40;2.30;;;;;;;2.81;96.86;95955.13;108020;1275;22537;-80
2023/12/11 00:13:05;;;;;;;5.90;2.10;;;;;;;2.83;96.98;95960.19;108019;1278;22588;-80
2023/12/11 00:15:33;;;;;;;4.10;2.00;;;;;;;2.90;96.79;95952.10;108020;1281;22572;-80
2023/12/11 00:18:01;;;;;;;9.30;3.10;;;;;;;3.00;96.46;95950.33;107997;1278;22553;-80
2023/12/11 00:20:29;;;;;;;6.00;2.00;;;;;;;3.05;96.11;95943.67;108020;1281;22586;-80
2023/12/11 00:22:57;;;;;;;4.80;2.00;;;;;;;3.16;95.77;95948.77;108036;1281;25259;-80
2023/12/11 00:25:29;;;;;;;5.70;1.80;;;;;;;3.23;95.42;95956.52;108039;1278;22534;-80
2023/12/11 00:27:57;;;;;;;4.30;1.70;;;;;;;3.25;95.11;95955.40;107975;1275;22764;-80
2023/12/11 00:30:29;;;;;;;4.80;1.50;;;;;;;3.25;94.93;95958.65;108050;1281;22538;-80
2023/12/11 00:32:58;;;;;;;5.00;2.30;;;;;;;3.26;94.79;95954.10;108023;1281;22582;-80
2023/12/11 00:35:26;;;;;;;4.20;1.70;;;;;;;3.23;94.70;95962.08;107929;1277;24346;-80
2023/12/11 00:38:02;;;;;;;5.40;2.10;;;;;;;3.18;94.57;95961.71;107984;1280;23141;-80
2023/12/11 00:40:30;;;;;;;4.40;2.40;;;;;;;3.15;94.56;95955.04;108032;1281;22560;-80
2023/12/11 00:42:58;;;;;;;4.90;1.80;;;;;;;3.15;94.62;95957.75;108005;1281;25350;-80
2023/12/11 00:45:29;;;;;;;5.20;2.60;;;;;;;3.14;94.60;95955.71;107990;1276;24511;-80
2023/12/11 00:47:57;;;;;;;7.40;2.20;;;;;;;3.16;94.49;95948.96;108004;1281;22555;-80
2023/12/11 00:50:25;;;;;;;2.70;1.30;;;;;;;3.16;94.34;95947.08;107988;1278;22864;-80
2023/12/11 00:52:53;;;;;;;5.60;2.30;;;;;;;3.11;94.15;95939.30;108061;1281;22524;-80
2023/12/11 00:55:22;;;;;;;6.40;1.90;;;;;;;3.10;94.12;95939.23;108039;1281;22544;-80
2023/12/11 00:57:50;;;;;;;7.00;2.60;;;;;;;3.10;94.24;95943.27;108037;1281;24304;-80
2023/12/11 01:00:21;;;;;;;4.20;2.50;;;;;;;3.03;94.07;95936.42;107981;1276;22534;-80
2023/12/11 01:02:50;;;;;;;7.10;2.50;;;;;;;2.95;94.11;95934.46;108062;1281;25405;-80
2023/12/11 01:05:21;;;;;;;5.80;2.50;;;;;;;2.88;93.98;95927.52;108012;1274;22602;-80
2023/12/11 01:07:51;;;;;;;4.30;1.70;;;;;;;2.90;94.34;95919.38;108019;1275;22744;-80
2023/12/11 01:10:19;;;;;;;5.50;2.40;;;;;;;2.99;94.47;95913.41;108028;1276;22539;-80
2023/12/11 01:12:49;;;;;;;7.10;2.50;;;;;;;2.90;93.95;95907.70;107991;1281;22693;-80
2023/12/11 01:15:17;;;;;;;9.10;2.60;;;;;;;2.80;94.10;95897.17;108025;1281;22540;-80
2023/12/11 01:17:48;;;;;;;5.40;3.00;;;;;;;2.79;94.28;95883.86;108053;1281;22557;-80
2023/12/11 01:20:17;;;;;;;8.00;3.50;;;;;;;2.85;94.55;95887.35;108015;1281;22713;-80
2023/12/11 01:22:45;;;;;;;6.20;2.40;;;;;;;2.86;94.47;95878.40;108044;1281;23374;-80
2023/12/11 01:25:14;;;;;;;6.10;2.60;;;;;;;2.80;94.36;95883.08;107999;1280;22589;-80
2023/12/11 01:27:42;;;;;;;6.80;2.70;;;;;;;2.76;94.36;95885.46;108003;1281;25961;-80
2023/12/11 01:30:11;;;;;;;5.00;2.50;;;;;;;2.69;94.31;95882.84;108030;1280;24225;-80
2023/12/11 01:32:39;;;;;;;6.70;2.40;;;;;;;2.66;94.45;95879.45;108045;1281;22540;-80
2023/12/11 01:35:08;;;;;;;5.90;2.10;;;;;;;2.67;94.60;95879.88;107956;1281;25877;-80
2023/12/11 01:37:37;;;;;;;4.40;1.80;;;;;;;2.76;94.85;95876.77;108058;1281;25425;-80
2023/12/11 01:40:09;;;;;;;5.00;2.10;;;;;;;2.87;94.94;95875.48;108006;1280;25912;-79
2023/12/11 01:42:37;;;;;;;4.60;1.30;;;;;;;3.02;94.72;95874.36;108143;1281;22549;-80
2023/12/11 01:45:07;;;;;;;3.60;2.10;;;;;;;3.17;94.02;95863.02;108021;1281;22542;-79
2023/12/11 01:47:35;;;;;;;4.10;1.60;;;;;;;3.31;93.38;95855.02;108043;1281;22546;-80
2023/12/11 01:50:07;;;;;;;5.60;2.30;;;;;;;3.33;93.12;95854.98;108003;1278;22539;-80
2023/12/11 01:52:36;;;;;;;5.30;2.20;;;;;;;3.31;92.85;95847.21;108039;1281;22537;-80
2023/12/11 01:55:07;;;;;;;6.40;2.20;;;;;;;3.34;92.05;95837.90;108014;1281;26237;-80
2023/12/11 01:57:38;;;;;;;5.90;1.90;;;;;;;3.40;91.77;95850.74;108165;1282;22588;-80
2023/12/11 02:00:09;;;;;;;6.30;2.00;;;;;;;3.41;91.26;95832.36;108027;1280;22559;-80
2023/12/11 02:02:37;;;;;;;11.10;2.60;;;;;;;3.38;90.95;95836.37;108116;1281;22559;-80
2023/12/11 02:05:08;;;;;;;5.80;2.30;;;;;;;3.32;90.96;95839.93;107997;1272;22541;-79
2023/12/11 02:07:38;;;;;;;5.20;3.00;;;;;;;3.21;91.07;95826.24;108038;1278;24213;-80
2023/12/11 02:10:09;;;;;;;4.00;2.00;;;;;;;3.10;91.07;95814.95;108020;1281;22575;-80
2023/12/11 02:12:38;;;;;;;8.40;4.30;;;;;;;3.00;91.40;95808.38;108059;1281;22579;-80
2023/12/11 02:15:07;;;;;;;5.70;3.10;;;;;;;3.01;91.61;95784.81;108034;1281;25135;-79
2023/12/11 02:17:36;;;;;;;5.90;2.70;;;;;;;3.02;91.55;95809.42;108041;1281;23236;-80
2023/12/11 02:20:08;;;;;;;8.00;4.10;;;;;;;2.96;91.58;95795.77;108038;1277;22543;-80
2023/12/11 02:22:37;;;;;;;9.90;3.10;;;;;;;2.91;91.65;95783.36;108055;1280;22552;-80
2023/12/11 02:25:07;;;;;;;7.50;3.30;;;;;;;2.84;91.64;95777.86;108036;1281;24443;-80
2023/12/11 02:27:35;;;;;;;8.40;3.90;;;;;;;2.79;91.78;95787.55;108093;1281;22539;-80
2023/12/11 02:30:08;;;;;;;10.90;4.00;;;;;;;2.78;91.97;95780.05;108071;1280;22617;-80
2023/12/11 02:32:36;;;;;;;8.10;3.60;;;;;;;2.78;91.94;95778.76;108099;1281;22547;-79
2023/12/11 02:35:07;;;;;;;7.70;4.40;;;;;;;2.77;91.83;95766.50;107986;1274;24273;-80
2023/12/11 02:37:36;;;;;;;9.70;4.20;;;;;;;2.79;91.89;95752.01;108101;1281;22552;-80
2023/12/11 02:40:04;;;;;;;;;;;;;;;2.83;91.57;95754.88;108031;1281;22533;-80
2023/12/11 02:42:33;;;;;;;10.70;4.20;;;;;;;2.82;91.57;95751.00;108142;1281;22536;-80
2023/12/11 02:45:01;;;;;;;8.70;3.70;;;;;;;2.81;91.39;95737.80;108056;1280;23078;-80
2023/12/11 02:47:29;;;;;;;11.00;4.50;;;;;;;2.81;91.30;95734.90;108039;1278;23645;-80
2023/12/11 02:49:58;;;;;;;12.50;4.40;;;;;;;2.82;91.13;95725.25;108049;1281;22568;-80
2023/12/11 02:52:26;;;;;;;8.60;4.10;;;;;;;2.90;90.52;95734.56;108062;1281;24278;-79
2023/12/11 02:54:57;;;;;;;9.30;4.30;;;;;;;2.96;90.09;95723.03;108062;1281;23431;-80
2023/12/11 02:57:25;;;;;;;10.80;4.00;;;;;;;2.96;89.91;95737.61;108063;1281;22514;-80
2023/12/11 02:59:53;;;;;;;6.50;3.50;;;;;;;2.93;89.93;95739.81;108034;1281;22538;-80
2023/12/11 03:02:24;;;;;;;8.80;4.80;;;;;;;2.91;89.78;95728.55;108049;1281;22555;-80
2023/12/11 03:04:52;;;;;;;5.40;3.20;;;;;;;2.93;89.68;95737.41;108027;1281;24332;-80
2023/12/11 03:07:23;;;;;;;9.40;4.10;;;;;;;2.97;89.78;95737.71;108097;1281;22535;-80
2023/12/11 03:09:51;;;;;;;8.70;3.20;;;;;;;2.95;89.73;95741.23;107901;1281;167348;-81
2023/12/11 03:12:19;;;;;;;9.30;3.80;;;;;;;2.98;89.74;95749.40;108047;1281;26478;-80
2023/12/11 03:14:50;;;;;;;7.80;3.90;;;;;;;3.07;89.40;95740.75;108019;1281;25362;-80
2023/12/11 03:17:22;;;;;;;9.50;4.60;;;;;;;3.09;88.74;95721.90;108016;1281;22562;-80
2023/12/11 03:19:53;;;;;;;6.00;3.70;;;;;;;3.07;88.58;95719.59;108030;1281;22659;-80
2023/12/11 03:22:24;;;;;;;5.10;2.80;;;;;;;3.05;88.89;95732.25;108066;1274;22572;-80
2023/12/11 03:24:53;;;;;;;6.30;2.70;;;;;;;3.08;88.99;95735.63;108025;1281;22533;-79
2023/12/11 03:27:26;;;;;;;6.10;3.50;;;;;;;3.10;88.48;95734.86;108069;1282;22541;-80
2023/12/11 03:29:55;;;;;;;8.20;3.70;;;;;;;3.05;88.53;95730.73;108035;1281;24475;-80
2023/12/11 03:32:24;;;;;;;6.00;3.40;;;;;;;3.08;88.53;95734.68;108100;1281;22546;-80
2023/12/11 03:34:52;;;;;;;6.10;3.90;;;;;;;3.05;88.48;95738.17;108005;1280;26748;-80
2023/12/11 03:37:24;;;;;;;5.50;2.70;;;;;;;3.09;88.53;95741.94;108058;1281;22546;-80
2023/12/11 03:39:52;;;;;;;4.70;2.80;;;;;;;3.10;88.48;95741.52;108047;1264;23249;-80
2023/12/11 03:42:21;;;;;;;7.70;2.90;;;;;;;3.11;88.13;95748.29;108057;1281;22533;-80
2023/12/11 03:44:50;;;;;;;7.50;3.40;;;;;;;3.12;88.15;95744.52;108047;1273;22676;-80
2023/12/11 03:47:18;;;;;;;8.40;3.00;;;;;;;3.12;88.28;95742.74;108092;1281;22532;-80
2023/12/11 03:49:46;;;;;;;4.10;2.10;;;;;;;3.11;88.17;95741.16;108037;1281;22560;-80
2023/12/11 03:52:14;;;;;;;7.00;3.60;;;;;;;3.11;88.26;95746.50;108055;1280;22540;-80
2023/12/11 03:54:42;;;;;;;6.20;3.10;;;;;;;3.09;88.29;95755.64;108043;1281;22630;-80
2023/12/11 03:57:11;;;;;;;6.50;3.30;;;;;;;3.05;88.32;95751.52;108061;1281;22550;-80
2023/12/11 03:59:39;;;;;;;6.70;3.60;;;;;;;3.01;88.33;95749.98;108007;1281;22550;-80
2023/12/11 04:02:07;;;;;;;8.50;3.50;;;;;;;3.01;88.31;95741.19;108000;1281;22544;-80
2023/12/11 04:04:36;;;;;;;9.50;3.50;;;;;;;2.99;88.35;95737.77;108039;1273;23071;-80
2023/12/11 04:07:05;;;;;;;8.70;3.30;;;;;;;2.97;88.43;95739.08;108088;1281;22571;-80
2023/12/11 04:09:38;;;;;;;9.00;3.70;;;;;;;2.96;88.42;95744.81;108045;1281;25296;-80
2023/12/11 04:12:06;;;;;;;6.00;3.60;;;;;;;2.95;88.46;95753.30;108012;1276;24815;-80
2023/12/11 04:14:35;;;;;;;9.30;3.70;;;;;;;3.01;88.52;95751.30;108031;1281;22537;-80
2023/12/11 04:17:03;;;;;;;10.60;3.80;;;;;;;3.05;88.45;95759.27;108051;1281;22560;-80
2023/12/11 04:19:34;;;;;;;6.30;3.30;;;;;;;3.08;88.37;95759.14;108024;1274;25271;-80
2023/12/11 04:22:04;;;;;;;7.70;3.80;;;;;;;3.13;88.33;95758.14;108054;1278;26466;-80
2023/12/11 04:24:33;;;;;;;6.60;2.80;;;;;;;3.16;88.27;95751.61;108044;1281;22562;-80
2023/12/11 04:27:01;;;;;;;11.30;4.30;;;;;;;3.19;88.19;95738.68;108037;1281;22552;-80
2023/12/11 04:29:29;;;;;;;4.40;3.00;;;;;;;3.23;88.06;95720.42;108030;1274;22569;-80
2023/12/11 04:31:57;;;;;;;6.80;3.60;;;;;;;3.24;87.63;95708.29;108045;1277;22547;-80
2023/12/11 04:34:26;;;;;;;7.60;3.80;;;;;;;3.25;87.44;95711.87;108051;1281;25338;-80
2023/12/11 04:36:54;;;;;;;;;;;;;;;3.25;87.39;95711.55;108015;1280;23354;-79
2023/12/11 04:39:22;;;;;;;7.90;4.10;;;;;;;3.21;87.19;95712.51;108082;1281;22578;-80
2023/12/11 04:41:53;;;;;;;9.60;4.80;;;;;;;3.19;86.78;95698.05;108079;1275;26479;-80
2023/12/11 04:44:21;;;;;;;9.20;3.80;;;;;;;3.17;86.90;95703.54;108047;1273;22533;-80
2023/12/11 04:46:49;;;;;;;8.10;4.10;;;;;;;3.19;86.94;95694.80;108025;1281;22538;-80
2023/12/11 04:49:21;;;;;;;10.00;3.50;;;;;;;3.22;86.89;95686.48;108052;1281;22589;-80
2023/12/11 04:51:52;;;;;;;8.20;4.50;;;;;;;3.27;86.96;95693.85;108033;1274;22540;-80
2023/12/11 04:54:21;;;;;;;7.60;3.50;;;;;;;3.27;86.73;95692.65;108088;1273;22540;-80
2023/12/11 04:56:49;;;;;;;7.90;3.10;;;;;;;3.28;86.59;95671.17;108020;1279;22534;-79
2023/12/11 04:59:19;;;;;;;18.80;6.70;;;;;;;3.35;86.34;95658.45;108064;1274;22618;-80
2023/12/11 05:01:48;;;;;;;8.00;3.70;;;;;;;3.32;86.31;95636.14;108076;1280;23383;-80
2023/12/11 05:04:16;;;;;;;6.40;2.80;;;;;;;3.28;86.18;95621.88;108076;1277;22544;-80
2023/12/11 05:06:45;;;;;;;4.60;2.30;;;;;;;3.25;86.22;95593.53;108027;1281;22571;-79
2023/12/11 05:09:13;;;;;;;4.00;2.20;;;;;;;3.30;86.13;95602.45;108057;1281;22945;-79
2023/12/11 05:11:41;;;;;;;6.90;2.80;;;;;;;3.42;84.73;95590.00;108091;1281;23214;-79
2023/12/11 05:14:09;;;;;;;4.10;1.90;;;;;;;3.63;83.45;95586.24;108041;1281;22576;-79
2023/12/11 05:16:38;;;;;;;6.20;2.90;;;;;;;3.70;83.71;95599.00;108050;1281;25816;-80
2023/12/11 05:19:06;;;;;;;6.20;2.20;;;;;;;3.72;83.51;95595.50;108023;1281;22604;-80
2023/12/11 05:21:34;;;;;;;6.10;3.20;;;;;;;3.73;83.08;95585.74;108030;1280;22580;-80
2023/12/11 05:24:04;;;;;;;4.40;1.90;;;;;;;3.73;83.13;95574.15;108062;1281;24281;-79
2023/12/11 05:26:32;;;;;;;3.80;2.10;;;;;;;3.79;81.56;95564.94;108010;1278;24399;-80
2023/12/11 05:29:01;;;;;;;8.90;3.00;;;;;;;3.83;81.30;95565.90;108020;1281;22541;-79
2023/12/11 05:31:29;;;;;;;7.50;2.90;;;;;;;3.77;81.34;95552.89;108071;1277;22556;-80
2023/12/11 05:33:58;;;;;;;5.10;3.10;;;;;;;3.71;81.65;95549.00;108106;1281;22582;-80
2023/12/11 05:36:28;;;;;;;4.40;2.60;;;;;;;3.70;81.69;95540.30;108011;1281;22551;-80
2023/12/11 05:38:57;;;;;;;6.30;1.50;;;;;;;3.75;81.80;95528.96;108040;1281;22571;-79
2023/12/11 05:41:25;;;;;;;5.10;3.00;;;;;;;3.89;81.29;95522.27;108057;1273;22690;-80
2023/12/11 05:43:53;;;;;;;3.40;2.10;;;;;;;4.00;80.16;95521.64;108087;1281;22530;-80
2023/12/11 05:46:24;;;;;;;3.50;1.60;;;;;;;4.19;77.71;95526.73;108032;1281;25376;-80
2023/12/11 05:48:52;;;;;;;3.60;1.60;;;;;;;4.34;75.15;95526.02;108046;1280;22537;-80
2023/12/11 05:51:22;;;;;;;3.80;1.70;;;;;;;4.54;72.71;95547.97;108025;1281;24257;-79
2023/12/11 05:53:51;;;;;;;3.80;2.10;;;;;;;4.64;71.68;95554.42;108036;1274;25300;-80
2023/12/11 05:56:22;;;;;;;4.10;1.80;;;;;;;4.65;72.40;95542.91;108039;1281;22541;-80
2023/12/11 05:58:51;;;;;;;3.80;2.00;;;;;;;4.66;69.56;95526.16;108061;1281;25254;-80
2023/12/11 06:01:19;;;;;;;;;;;;;;;4.78;68.97;95548.76;108072;1281;22582;-80
2023/12/11 06:03:47;;;;;;;4.20;2.10;;;;;;;4.76;68.40;95559.83;108048;1281;22544;-80
2023/12/11 06:06:18;;;;;;;3.90;2.00;;;;;;;4.75;68.09;95555.53;108027;1273;24265;-80
2023/12/11 06:08:46;;;;;;;7.20;3.00;;;;;;;4.79;67.42;95563.66;108051;1281;22602;-79
2023/12/11 06:11:15;;;;;;;4.80;2.30;;;;;;;4.80;67.25;95567.14;108028;1281;22562;-80
2023/12/11 06:13:45;;;;;;;5.20;2.80;;;;;;;4.75;67.20;95560.20;108063;1274;26516;-80
2023/12/11 06:16:14;;;;;;;4.20;2.30;;;;;;;4.74;67.64;95582.64;107984;1281;22567;-80
2023/12/11 06:18:42;;;;;;;4.20;2.50;;;;;;;4.63;68.37;95583.33;108072;1280;22541;-80
2023/12/11 06:21:19;;;;;;;6.90;2.30;;;;;;;4.55;69.10;95585.56;108016;1277;22556;-81
2023/12/11 06:23:50;;;;;;;3.70;2.30;;;;;;;4.42;69.97;95577.64;108137;1281;22575;-81
2023/12/11 06:26:29;;;;;;;4.40;2.40;;;;;;;4.32;70.87;95570.24;108043;1281;22536;-80
2023/12/11 06:28:59;;;;;;;4.70;2.60;;;;;;;4.26;71.15;95582.38;108080;1281;24352;-81
2023/12/11 06:31:30;;;;;;;6.50;3.10;;;;;;;4.21;71.78;95579.07;108111;1280;22614;-81
2023/12/11 06:33:59;;;;;;;7.00;3.40;;;;;;;4.13;72.02;95578.66;108076;1277;22573;-81
2023/12/11 06:36:28;;;;;;;9.20;3.90;;;;;;;3.99;72.11;95571.62;107988;1274;22537;-81
2023/12/11 06:38:58;;;;;;;4.70;2.80;;;;;;;3.83;72.89;95578.84;108049;1281;22533;-81
2023/12/11 06:41:26;;;;;;;8.20;3.60;;;;;;;3.80;73.22;95565.99;108080;1281;22545;-81
2023/12/11 06:43:57;;;;;;;7.00;3.50;;;;;;;3.81;73.63;95569.52;108088;1281;22595;-81
2023/12/11 06:46:28;;;;;;;6.00;3.50;;;;;;;3.71;73.74;95575.15;108139;1281;22544;-80
2023/12/11 06:48:57;;;;;;;5.50;3.10;;;;;;;3.64;74.11;95565.90;108084;1281;25305;-81
2023/12/11 06:51:25;;;;;;;5.80;3.50;;;;;;;3.58;74.43;95575.91;108086;1281;22540;-81
2023/12/11 06:53:58;;;;;;;5.80;3.00;;;;;;;3.54;74.75;95569.10;108076;1273;22537;-81
2023/12/11 06:56:30;;;;;;;8.20;3.80;;;;;;;3.50;75.32;95564.67;108042;1281;22534;-81
2023/12/11 06:58:59;;;;;;;6.90;3.00;;;;;;;3.45;75.60;95580.54;108039;1281;22559;-81
2023/12/11 07:01:29;;;;;;;6.20;3.90;;;;;;;3.42;75.79;95570.74;108036;1278;22553;-81
2023/12/11 07:03:57;;;;;;;6.70;3.10;;;;;;;3.42;76.30;95571.73;108063;1281;24382;-81
2023/12/11 07:06:28;;;;;;;3.20;1.60;;;;;;;3.49;76.89;95561.89;108110;1281;27774;-80
2023/12/11 07:08:58;;;;;;;5.50;2.30;;;;;;;3.74;77.33;95562.42;108046;1281;22543;-81
2023/12/11 07:11:28;;;;;;;5.00;2.30;;;;;;;3.83;77.36;95566.73;108053;1281;22577;-81
2023/12/11 07:13:56;;;;;;;2.60;1.50;;;;;;;3.79;77.29;95567.17;108065;1281;22531;-81
2023/12/11 07:16:25;;;;;;;4.90;2.30;;;;;;;3.88;77.68;95564.58;108022;1281;22663;-81
2023/12/11 07:18:53;;;;;;;2.80;1.60;;;;;;;3.91;77.59;95559.80;107988;1281;22606;-81
2023/12/11 07:21:21;;;;;;;4.20;1.60;;;;;;;3.98;77.69;95554.52;108030;1281;22664;-81
2023/12/11 07:23:53;;;;;;;3.00;1.60;;;;;;;4.08;77.17;95548.96;108064;1273;22531;-81
2023/12/11 07:26:21;;;;;;;4.90;1.60;;;;;;;4.29;77.34;95554.67;108048;1281;22614;-81
2023/12/11 07:28:49;;;;;;;2.50;1.30;;;;;;;4.31;76.85;95570.04;108030;1281;23298;-81
2023/12/11 07:31:18;;;;;;;1.80;1.10;;;;;;;4.40;76.68;95562.54;108046;1281;25438;-81
2023/12/11 07:33:52;;;;;;;4.40;1.50;;;;;;;4.48;76.61;95569.97;108030;1281;22717;-81
2023/12/11 07:36:23;;;;;;;2.20;1.30;;;;;;;4.68;76.68;95559.75;108032;1281;22544;-81
2023/12/11 07:38:51;;;;;;;2.10;1.30;;;;;;;4.92;76.09;95552.95;108060;1273;25286;-81
2023/12/11 07:41:21;;;;;;;3.60;1.70;;;;;;;5.03;75.22;95555.08;108039;1280;22617;-80
2023/12/11 07:43:49;;;;;;;;;;;;;;;5.12;74.89;95548.96;108051;1281;24289;-80
2023/12/11 07:46:19;;;;;;;3.90;1.70;;;;;;;5.16;74.90;95563.90;108029;1278;22580;-80
2023/12/11 07:48:46;;;;;;;;;;;;;;;5.27;74.93;95571.53;108052;1281;22512;-81
2023/12/11 07:51:23;;;;;;;2.90;1.40;;;;;;;5.42;74.62;95569.33;108042;1274;22552;-80
2023/12/11 07:53:54;;;;;;;2.40;1.20;;;;;;;5.52;73.70;95561.75;108089;1281;24222;-80
2023/12/11 07:56:24;;;;;;;2.40;1.30;;;;;;;5.59;73.15;95569.11;108027;1281;24089;-80
2023/12/11 07:58:53;;;;;;;3.60;1.50;;;;;;;5.64;72.50;95576.73;108046;1281;22578;-80
2023/12/11 08:01:22;;;;;;;2.30;1.10;;;;;;;5.44;72.59;95589.23;108036;1281;22535;-80
2023/12/11 08:03:50;;;;;;;2.90;1.60;;;;;;;5.23;73.10;95582.38;108045;1281;21750;-80
2023/12/11 08:06:19;;;;;;;3.60;1.30;;;;;;;5.19;73.83;95585.28;108032;1281;22536;-80
2023/12/11 08:08:48;;;;;;;3.70;1.90;;;;;;;5.30;74.06;95567.16;108037;1281;22540;-80
2023/12/11 08:11:18;;;;;;;3.10;1.80;;;;;;;5.27;73.89;95560.82;108043;1281;24195;-80
2023/12/11 08:13:47;;;;;;;2.70;1.20;;;;;;;5.30;74.26;95560.02;108035;1276;22537;-80
2023/12/11 08:16:15;;;;;;;;;;;;;;;5.47;74.71;95544.15;108087;1273;22510;-80
2023/12/11 08:18:44;;;;;;;2.90;0.90;;;;;;;5.48;74.41;95548.52;108036;1273;22559;-80
2023/12/11 08:21:12;;;;;;;4.70;1.10;;;;;;;5.60;74.87;95547.86;108084;1274;22563;-81
2023/12/11 08:23:43;;;;;;;2.90;1.20;;;;;;;5.62;74.79;95544.54;108065;1274;23793;-80
2023/12/11 08:26:17;;;;;;;2.70;1.70;;;;;;;5.62;74.27;95549.64;108088;1281;22621;-80
2023/12/11 08:28:49;;;;;;;3.60;1.60;;;;;;;5.40;73.95;95550.77;108053;1274;22563;-80
2023/12/11 08:31:21;;;;;;;3.40;2.00;;;;;;;5.30;74.68;95559.16;108001;1281;22717;-80
2023/12/11 08:33:49;;;;;;;3.10;1.80;;;;;;;5.20;74.72;95560.33;108047;1274;24179;-81
2023/12/11 08:36:21;;;;;;;5.00;2.40;;;;;;;5.09;75.25;95556.42;108009;1281;22575;-80
2023/12/11 08:38:50;;;;;;;4.00;2.00;;;;;;;5.02;75.41;95543.95;108062;1281;23406;-80
2023/12/11 08:41:20;;;;;;;3.70;2.00;;;;;;;4.92;75.69;95553.49;108070;1281;22548;-80
2023/12/11 08:43:49;;;;;;;4.30;1.90;;;;;;;4.83;76.17;95552.73;108065;1273;25272;-80
2023/12/11 08:46:18;;;;;;;4.60;2.10;;;;;;;4.74;76.43;95545.40;108026;1281;25300;-80
2023/12/11 08:48:47;;;;;;;3.90;1.80;;;;;;;4.69;76.95;95570.63;108032;1280;25283;-80
2023/12/11 08:51:18;;;;;;;4.10;2.20;;;;;;;4.66;77.29;95563.23;108058;1281;22551;-80
2023/12/11 08:53:49;;;;;;;4.00;1.80;;;;;;;4.63;77.71;95571.05;108115;1280;22600;-80
2023/12/11 08:56:21;;;;;;;5.60;2.30;;;;;;;4.61;77.90;95572.52;108019;1281;29114;-80
2023/12/11 08:58:52;;;;;;;4.20;2.20;;;;;;;4.55;78.03;95578.42;108010;1280;22583;-80
2023/12/11 09:01:20;;;;;;;4.60;2.10;;;;;;;4.45;78.25;95585.50;108062;1281;23561;-81
2023/12/11 09:03:50;;;;;;;3.50;2.10;;;;;;;4.33;78.75;95589.29;108052;1274;23962;-80
2023/12/11 09:06:19;;;;;;;5.60;2.40;;;;;;;4.28;79.41;95596.48;108020;1281;22549;-80
2023/12/11 09:08:52;;;;;;;4.00;2.10;;;;;;;4.26;79.66;95596.55;108055;1273;22605;-80
2023/12/11 09:11:20;;;;;;;4.40;2.40;;;;;;;4.22;79.79;95594.27;108068;1281;22632;-80
2023/12/11 09:13:49;;;;;;;6.00;4.10;;;;;;;4.21;79.99;95599.63;108035;1273;22646;-80
2023/12/11 09:16:19;;;;;;;6.50;3.10;;;;;;;4.21;80.22;95597.89;108019;1281;22544;-80
2023/12/11 09:18:50;;;;;;;3.40;1.60;;;;;;;4.29;80.65;95589.72;108054;1281;22537;-80
2023/12/11 09:21:18;;;;;;;5.60;2.70;;;;;;;4.37;80.55;95602.83;108071;1279;22886;-80
2023/12/11 09:23:47;;;;;;;5.60;3.20;;;;;;;4.51;80.69;95606.77;108057;1274;25512;-80
2023/12/11 09:26:17;;;;;;;4.60;2.60;;;;;;;4.66;80.59;95599.87;108045;1281;22489;-80
2023/12/11 09:28:45;;;;;;;4.60;2.50;;;;;;;4.81;80.35;95598.54;107980;1281;26717;-80
2023/12/11 09:31:14;;;;;;;4.20;2.20;;;;;;;4.80;80.26;95590.83;108053;1277;27036;-80
2023/12/11 09:33:42;;;;;;;5.10;2.60;;;;;;;4.85;80.11;95587.18;108032;1281;21798;-80
2023/12/11 09:36:11;;;;;;;5.90;1.90;;;;;;;4.82;79.80;95592.91;108016;1281;22548;-80
2023/12/11 09:38:39;;;;;;;4.10;1.90;;;;;;;4.87;79.91;95586.59;108012;1281;23250;-80
2023/12/11 09:41:08;;;;;;;5.30;2.70;;;;;;;4.92;79.61;95590.36;108035;1281;23127;-80
2023/12/11 09:43:37;;;;;;;3.60;2.40;;;;;;;4.81;79.46;95596.75;108063;1281;22555;-80
2023/12/11 09:46:11;;;;;;;3.30;1.70;;;;;;;4.80;79.81;95599.70;107980;1281;22551;-80
2023/12/11 09:48:39;;;;;;;4.00;1.90;;;;;;;4.82;80.12;95599.33;108056;1258;25157;-80
2023/12/11 09:51:08;;;;;;;3.00;1.90;;;;;;;4.83;80.30;95599.64;108044;1281;22635;-80
2023/12/11 09:53:37;;;;;;;4.50;1.90;;;;;;;4.91;80.51;95606.29;108066;1273;22525;-80
2023/12/11 09:56:07;;;;;;;3.60;1.90;;;;;;;4.97;80.32;95608.95;108052;1281;22582;-80
2023/12/11 09:58:36;;;;;;;3.50;1.70;;;;;;;4.98;80.36;95599.86;108062;1281;22557;-80
2023/12/11 10:01:06;;;;;;;2.20;1.00;;;;;;;4.94;80.32;95597.50;108031;1281;26463;-80
2023/12/11 10:03:34;;;;;;;3.00;1.50;;;;;;;4.90;80.52;95606.11;108041;1281;22616;-80
2023/12/11 10:06:04;;;;;;;4.90;1.70;;;;;;;4.86;80.82;95599.67;108004;1280;22500;-80
2023/12/11 10:08:42;;;;;;;2.30;1.20;;;;;;;4.87;81.06;95603.83;108059;1281;22571;-80
2023/12/11 10:11:12;;;;;;;2.80;1.70;;;;;;;4.97;81.14;95598.08;108049;1281;22547;-80
2023/12/11 10:13:39;;;;;;;;;;;;;;;5.08;81.44;95591.99;108057;1274;22550;-80
2023/12/11 10:16:27;;;;;;;2.10;1.30;;;;;;;5.16;81.24;95579.94;108026;1279;24286;-80
2023/12/11 10:18:56;;;;;;;0.90;0.80;;;;;;;5.16;80.64;95580.98;108063;1281;25533;-80
2023/12/11 10:21:26;;;;;;;2.20;1.60;;;;;;;5.10;80.54;95564.95;108044;1273;22511;-80
2023/12/11 10:24:03;;;;;;;2.40;1.40;;;;;;;5.02;80.63;95564.70;108069;1281;25589;-80
2023/12/11 10:26:33;;;;;;;1.80;1.50;;;;;;;4.97;80.70;95566.77;108015;1280;22547;-80
2023/12/11 10:29:21;;;;;;;1.70;1.40;;;;;;;4.97;80.78;95564.73;108056;1281;22544;-80
2023/12/11 10:31:49;;;;;;;2.30;1.30;;;;;;;5.05;81.08;95560.59;108048;1281;22550;-81
2023/12/11 10:34:17;;;;;;;2.20;1.50;;;;;;;5.18;80.60;95557.43;108080;1277;22605;-80
2023/12/11 10:36:49;;;;;;;2.60;1.30;;;;;;;5.17;80.30;95552.92;108025;1280;22564;-80
2023/12/11 10:39:30;;;;;;;2.50;1.50;;;;;;;5.13;80.19;95560.88;108129;1274;22642;-80
2023/12/11 10:42:16;;;;;;;2.80;1.60;;;;;;;5.17;80.41;95564.02;108147;1281;22551;-82
2023/12/11 10:44:45;;;;;;;3.70;1.70;;;;;;;5.23;80.41;95566.66;108168;1274;22544;-80
2023/12/11 10:47:17;;;;;;;2.50;1.30;;;;;;;5.25;80.20;95562.89;108117;1281;22663;-81
2023/12/11 10:49:45;;;;;;;1.60;1.10;;;;;;;5.26;80.03;95566.76;108100;1281;25268;-81
2023/12/11 10:52:14;;;;;;;1.40;1.00;;;;;;;5.22;79.79;95576.77;108034;1274;25571;-81
2023/12/11 10:54:42;;;;;;;2.50;1.40;;;;;;;5.22;80.13;95572.15;108040;1281;22573;-81
2023/12/11 10:57:14;;;;;;;2.40;1.20;;;;;;;5.24;80.15;95570.45;108053;1281;22602;-81
2023/12/11 10:59:45;;;;;;;2.70;1.30;;;;;;;5.21;80.01;95565.85;108023;1281;22545;-81
2023/12/11 11:02:18;;;;;;;2.60;1.20;;;;;;;5.21;80.17;95571.77;108063;1274;22566;-81
2023/12/11 11:04:49;;;;;;;2.60;1.10;;;;;;;5.18;80.38;95574.15;108072;1276;24424;-80
2023/12/11 11:07:25;;;;;;;2.80;1.40;;;;;;;5.20;80.59;95580.19;108033;1275;25461;-81
2023/12/11 11:10:03;;;;;;;2.00;1.10;;;;;;;5.22;80.68;95584.23;108056;1281;22598;-81
2023/12/11 11:12:41;;;;;;;1.90;1.40;;;;;;;5.23;80.84;95585.33;108042;1277;22541;-81
2023/12/11 11:15:10;;;;;;;1.90;1.00;;;;;;;5.26;80.92;95581.84;108016;1281;22537;-81
2023/12/11 11:17:57;;;;;;;2.30;1.20;;;;;;;5.27;80.84;95590.30;107997;1281;22540;-81
2023/12/11 11:20:27;;;;;;;1.70;1.00;;;;;;;5.25;81.17;95584.80;108019;1281;22537;-81
2023/12/11 11:23:26;;;;;;;2.20;1.30;;;;;;;5.23;81.03;95586.07;108025;1281;22570;-81
2023/12/11 11:25:59;;;;;;;1.20;0.80;;;;;;;5.23;81.03;95592.84;108108;1280;22570;-80
2023/12/11 11:28:41;;;;;;;0.90;0.70;;;;;;;5.18;81.11;95590.64;108034;1277;22542;-81
2023/12/11 11:31:10;;;;;;;2.50;1.10;;;;;;;5.13;81.09;95588.15;108048;1276;22556;-81
2023/12/11 11:33:46;;;;;;;2.10;1.00;;;;;;;5.08;81.19;95586.48;108034;1277;22527;-81
2023/12/11 11:36:16;;;;;;;1.70;1.30;;;;;;;5.00;81.12;95580.88;108017;1275;24257;-81
2023/12/11 11:38:56;;;;;;;1.40;1.10;;;;;;;4.92;81.42;95586.16;108013;1281;22534;-81
2023/12/11 11:41:27;;;;;;;1.80;1.20;;;;;;;4.85;81.49;95585.60;108045;1281;25313;-81
2023/12/11 11:44:04;;;;;;;2.00;1.10;;;;;;;4.83;81.67;95582.92;108038;1274;22544;-81
2023/12/11 11:46:50;;;;;;;3.50;1.30;;;;;;;4.78;81.85;95577.80;108003;1281;22551;-81